createdAt,value
2017-06-05T00:00:25.536Z,1003.81
2017-06-05T00:01:06.049Z,1003.85
2017-06-05T00:01:46.513Z,1003.81
2017-06-05T00:02:26.997Z,1003.81
2017-06-05T00:03:07.492Z,1003.83
2017-06-05T00:03:47.963Z,1003.78
2017-06-05T00:04:28.487Z,1003.78
2017-06-05T00:05:08.940Z,1003.82
2017-06-05T00:05:49.475Z,1003.77
2017-06-05T00:06:29.961Z,1003.84
2017-06-05T00:07:10.453Z,1003.8
2017-06-05T00:07:50.987Z,1003.76
2017-06-05T00:08:31.490Z,1003.8
2017-06-05T00:09:11.958Z,1003.84
2017-06-05T00:09:52.488Z,1003.79
2017-06-05T00:10:33.041Z,1003.76
2017-06-05T00:11:13.491Z,1003.79
2017-06-05T00:11:53.963Z,1003.78
2017-06-05T00:12:34.505Z,1003.76
2017-06-05T00:13:14.944Z,1003.78
2017-06-05T00:13:55.438Z,1003.75
2017-06-05T00:14:35.976Z,1003.69
2017-06-05T00:15:16.474Z,1003.75
2017-06-05T00:15:57.089Z,1003.74
2017-06-05T00:16:37.560Z,1003.78
2017-06-05T00:17:18.048Z,1003.74
2017-06-05T00:17:58.553Z,1003.69
2017-06-05T00:18:39.082Z,1003.77
2017-06-05T00:19:19.548Z,1003.76
2017-06-05T00:20:00.088Z,1003.72
2017-06-05T00:20:40.540Z,1003.77
2017-06-05T00:21:21.045Z,1003.75
2017-06-05T00:22:01.550Z,1003.73
2017-06-05T00:22:42.022Z,1003.73
2017-06-05T00:23:22.480Z,1003.76
2017-06-05T00:24:03.010Z,1003.72
2017-06-05T00:24:43.487Z,1003.7
2017-06-05T00:25:24.013Z,1003.71
2017-06-05T00:26:04.478Z,1003.71
2017-06-05T00:26:44.979Z,1003.7
2017-06-05T00:27:25.475Z,1003.73
2017-06-05T00:28:05.959Z,1003.7
2017-06-05T00:28:46.506Z,1003.67
2017-06-05T00:29:27.013Z,1003.67
2017-06-05T00:30:07.487Z,1003.66
2017-06-05T00:30:47.945Z,1003.62
2017-06-05T00:31:28.477Z,1003.64
2017-06-05T00:32:09.047Z,1003.61
2017-06-05T00:32:49.542Z,1003.63
2017-06-05T00:33:30.026Z,1003.63
2017-06-05T00:34:10.542Z,1003.62
2017-06-05T00:34:50.999Z,1003.62
2017-06-05T00:35:31.518Z,1003.62
2017-06-05T00:36:12.012Z,1003.63
2017-06-05T00:36:52.468Z,1003.68
2017-06-05T00:37:32.975Z,1003.64
2017-06-05T00:38:13.466Z,1003.61
2017-06-05T00:38:53.977Z,1003.65
2017-06-05T00:39:34.477Z,1003.66
2017-06-05T00:40:14.970Z,1003.65
2017-06-05T00:40:55.435Z,1003.63
2017-06-05T00:41:35.942Z,1003.59
2017-06-05T00:42:16.537Z,1003.59
2017-06-05T00:42:57.070Z,1003.57
2017-06-05T00:43:37.563Z,1003.56
2017-06-05T00:44:18.080Z,1003.54
2017-06-05T00:44:58.597Z,1003.55
2017-06-05T00:45:39.197Z,1003.52
2017-06-05T00:46:19.743Z,1003.48
2017-06-05T00:47:00.281Z,1003.48
2017-06-05T00:47:40.750Z,1003.47
2017-06-05T00:48:21.284Z,1003.51
2017-06-05T00:49:01.837Z,1003.47
2017-06-05T00:49:42.276Z,1003.45
2017-06-05T00:50:22.786Z,1003.42
2017-06-05T00:51:03.278Z,1003.44
2017-06-05T00:51:43.799Z,1003.45
2017-06-05T00:52:24.336Z,1003.45
2017-06-05T00:53:04.823Z,1003.48
2017-06-05T00:53:46.034Z,1003.46
2017-06-05T00:54:26.555Z,1003.43
2017-06-05T00:55:07.069Z,1003.44
2017-06-05T00:55:47.574Z,1003.44
2017-06-05T00:56:28.081Z,1003.37
2017-06-05T00:57:08.560Z,1003.39
2017-06-05T00:57:49.079Z,1003.39
2017-06-05T00:58:29.635Z,1003.38
2017-06-05T00:59:10.146Z,1003.39
2017-06-05T00:59:50.681Z,1003.42
2017-06-05T01:00:31.142Z,1003.4
2017-06-05T01:01:11.636Z,1003.36
2017-06-05T01:01:52.161Z,1003.38
2017-06-05T01:02:32.631Z,1003.37
2017-06-05T01:03:13.128Z,1003.39
2017-06-05T01:03:53.635Z,1003.34
2017-06-05T01:04:34.147Z,1003.33
2017-06-05T01:05:14.698Z,1003.31
2017-06-05T01:05:55.207Z,1003.29
2017-06-05T01:06:35.662Z,1003.33
2017-06-05T01:07:16.223Z,1003.28
2017-06-05T01:07:56.691Z,1003.32
2017-06-05T01:08:37.181Z,1003.32
2017-06-05T01:09:17.699Z,1003.32
2017-06-05T01:09:58.213Z,1003.32
2017-06-05T01:10:38.734Z,1003.31
2017-06-05T01:11:19.242Z,1003.34
2017-06-05T01:11:59.712Z,1003.27
2017-06-05T01:12:40.197Z,1003.28
2017-06-05T01:13:20.706Z,1003.29
2017-06-05T01:14:01.205Z,1003.25
2017-06-05T01:14:41.680Z,1003.29
2017-06-05T01:15:22.150Z,1003.28
2017-06-05T01:16:02.666Z,1003.3
2017-06-05T01:16:43.174Z,1003.31
2017-06-05T01:17:23.678Z,1003.31
2017-06-05T01:18:04.192Z,1003.36
2017-06-05T01:18:44.697Z,1003.35
2017-06-05T01:19:25.207Z,1003.31
2017-06-05T01:20:05.663Z,1003.32
2017-06-05T01:20:46.147Z,1003.32
2017-06-05T01:21:26.661Z,1003.29
2017-06-05T01:22:07.189Z,1003.33
2017-06-05T01:22:47.681Z,1003.31
2017-06-05T01:23:28.198Z,1003.34
2017-06-05T01:24:08.707Z,1003.3
2017-06-05T01:24:49.210Z,1003.27
2017-06-05T01:25:29.726Z,1003.28
2017-06-05T01:26:10.221Z,1003.34
2017-06-05T01:26:50.735Z,1003.29
2017-06-05T01:27:31.233Z,1003.29
2017-06-05T01:28:11.694Z,1003.29
2017-06-05T01:28:52.253Z,1003.29
2017-06-05T01:29:32.710Z,1003.27
2017-06-05T01:30:13.215Z,1003.23
2017-06-05T01:30:53.727Z,1003.23
2017-06-05T01:31:34.231Z,1003.2
2017-06-05T01:32:14.733Z,1003.25
2017-06-05T01:32:55.238Z,1003.25
2017-06-05T01:33:35.747Z,1003.25
2017-06-05T01:34:16.221Z,1003.22
2017-06-05T01:34:57.553Z,1003.17
2017-06-05T01:35:38.029Z,1003.16
2017-06-05T01:36:18.666Z,1003.18
2017-06-05T01:36:59.104Z,1003.17
2017-06-05T01:37:39.575Z,1003.19
2017-06-05T01:38:20.095Z,1003.19
2017-06-05T01:39:00.557Z,1003.09
2017-06-05T01:39:41.086Z,1003.05
2017-06-05T01:40:21.598Z,1003.05
2017-06-05T01:41:02.757Z,1003.05
2017-06-05T01:41:42.577Z,1003
2017-06-05T01:42:23.095Z,1003
2017-06-05T01:43:03.576Z,1002.97
2017-06-05T01:43:44.101Z,1002.99
2017-06-05T01:44:24.595Z,1002.94
2017-06-05T01:45:05.073Z,1002.93
2017-06-05T01:45:45.587Z,1002.95
2017-06-05T01:46:26.105Z,1002.91
2017-06-05T01:47:06.606Z,1002.88
2017-06-05T01:47:47.082Z,1002.9
2017-06-05T01:48:27.589Z,1002.95
2017-06-05T01:49:08.032Z,1002.96
2017-06-05T01:49:48.553Z,1002.93
2017-06-05T01:50:29.021Z,1002.93
2017-06-05T01:51:09.533Z,1002.98
2017-06-05T01:51:50.026Z,1002.99
2017-06-05T01:52:30.541Z,1002.98
2017-06-05T01:53:11.046Z,1002.96
2017-06-05T01:53:51.563Z,1003.01
2017-06-05T01:54:32.070Z,1002.99
2017-06-05T01:55:12.638Z,1003
2017-06-05T01:55:53.208Z,1003.01
2017-06-05T01:56:33.670Z,1003
2017-06-05T01:57:14.141Z,1002.99
2017-06-05T01:57:54.642Z,1002.93
2017-06-05T01:58:35.176Z,1002.97
2017-06-05T01:59:15.703Z,1002.97
2017-06-05T01:59:56.174Z,1002.92
2017-06-05T02:00:36.660Z,1002.96
2017-06-05T02:01:17.210Z,1002.92
2017-06-05T02:01:57.679Z,1002.88
2017-06-05T02:02:38.218Z,1002.91
2017-06-05T02:03:18.692Z,1002.9
2017-06-05T02:03:59.174Z,1002.93
2017-06-05T02:04:39.695Z,1002.91
2017-06-05T02:05:20.199Z,1002.92
2017-06-05T02:06:00.683Z,1002.88
2017-06-05T02:06:41.196Z,1002.87
2017-06-05T02:07:21.679Z,1002.87
2017-06-05T02:08:02.156Z,1002.84
2017-06-05T02:08:42.648Z,1002.83
2017-06-05T02:09:23.198Z,1002.81
2017-06-05T02:10:03.691Z,1002.79
2017-06-05T02:10:44.185Z,1002.82
2017-06-05T02:11:24.744Z,1002.81
2017-06-05T02:12:05.212Z,1002.81
2017-06-05T02:12:45.710Z,1002.82
2017-06-05T02:13:26.166Z,1002.81
2017-06-05T02:14:06.692Z,1002.8
2017-06-05T02:14:47.217Z,1002.82
2017-06-05T02:15:27.688Z,1002.86
2017-06-05T02:16:08.203Z,1002.84
2017-06-05T02:16:48.683Z,1002.85
2017-06-05T02:17:29.170Z,1002.84
2017-06-05T02:18:09.691Z,1002.83
2017-06-05T02:18:50.208Z,1002.8
2017-06-05T02:20:48.451Z,1002.82
2017-06-05T02:21:28.953Z,1002.86
2017-06-05T02:22:09.462Z,1002.83
2017-06-05T02:22:49.947Z,1002.86
2017-06-05T02:23:30.452Z,1002.83
2017-06-05T02:24:10.939Z,1002.87
2017-06-05T02:24:51.419Z,1002.93
2017-06-05T02:25:31.929Z,1002.94
2017-06-05T02:26:12.475Z,1002.98
2017-06-05T02:26:52.974Z,1002.99
2017-06-05T02:27:33.490Z,1002.97
2017-06-05T02:28:13.960Z,1002.98
2017-06-05T02:28:54.456Z,1003.01
2017-06-05T02:29:34.987Z,1002.98
2017-06-05T02:30:15.425Z,1002.96
2017-06-05T02:30:55.925Z,1002.98
2017-06-05T02:31:36.416Z,1002.96
2017-06-05T02:32:16.958Z,1002.96
2017-06-05T02:32:57.455Z,1002.95
2017-06-05T02:33:37.968Z,1002.95
2017-06-05T02:34:18.471Z,1002.97
2017-06-05T02:34:58.957Z,1003.01
2017-06-05T02:35:39.457Z,1003
2017-06-05T02:36:20.033Z,1002.99
2017-06-05T02:37:00.490Z,1003.01
2017-06-05T02:37:41.015Z,1002.99
2017-06-05T02:38:21.523Z,1003.05
2017-06-05T02:39:01.975Z,1003.02
2017-06-05T02:39:42.485Z,1003.07
2017-06-05T02:40:22.981Z,1003.08
2017-06-05T02:41:03.488Z,1003.13
2017-06-05T02:41:43.979Z,1003.09
2017-06-05T02:42:24.491Z,1003.13
2017-06-05T02:43:05.002Z,1003.12
2017-06-05T02:43:45.463Z,1003.14
2017-06-05T02:44:25.972Z,1003.13
2017-06-05T02:45:06.478Z,1003.2
2017-06-05T02:45:47.005Z,1003.22
2017-06-05T02:46:27.475Z,1003.21
2017-06-05T02:47:07.995Z,1003.18
2017-06-05T02:47:48.507Z,1003.2
2017-06-05T02:48:29.082Z,1003.17
2017-06-05T02:49:09.559Z,1003.15
2017-06-05T02:49:50.107Z,1003.12
2017-06-05T02:50:30.607Z,1003.17
2017-06-05T02:51:11.094Z,1003.17
2017-06-05T02:51:51.626Z,1003.13
2017-06-05T02:52:32.099Z,1003.14
2017-06-05T02:53:12.650Z,1003.16
2017-06-05T02:53:53.130Z,1003.18
2017-06-05T02:54:33.668Z,1003.17
2017-06-05T02:55:14.154Z,1003.17
2017-06-05T02:55:54.685Z,1003.18
2017-06-05T02:56:35.189Z,1003.19
2017-06-05T02:57:15.688Z,1003.18
2017-06-05T02:57:56.191Z,1003.21
2017-06-05T02:58:36.689Z,1003.19
2017-06-05T02:59:17.235Z,1003.22
2017-06-05T02:59:57.722Z,1003.23
2017-06-05T03:00:38.180Z,1003.23
2017-06-05T03:01:18.679Z,1003.28
2017-06-05T03:01:59.165Z,1003.26
2017-06-05T03:02:39.693Z,1003.25
2017-06-05T03:03:20.252Z,1003.23
2017-06-05T03:04:00.862Z,1003.18
2017-06-05T03:04:41.377Z,1003.24
2017-06-05T03:05:21.879Z,1003.2
2017-06-05T03:06:02.348Z,1003.21
2017-06-05T03:06:42.865Z,1003.21
2017-06-05T03:07:23.368Z,1003.24
2017-06-05T03:08:03.861Z,1003.22
2017-06-05T03:08:44.359Z,1003.18
2017-06-05T03:09:24.849Z,1003.18
2017-06-05T03:10:05.336Z,1003.18
2017-06-05T03:10:45.806Z,1003.19
2017-06-05T03:11:26.307Z,1003.2
2017-06-05T03:12:06.832Z,1003.18
2017-06-05T03:12:47.328Z,1003.17
2017-06-05T03:13:27.816Z,1003.2
2017-06-05T03:14:08.319Z,1003.22
2017-06-05T03:14:48.806Z,1003.22
2017-06-05T03:15:29.422Z,1003.19
2017-06-05T03:16:09.933Z,1003.19
2017-06-05T03:16:50.539Z,1003.24
2017-06-05T03:17:31.039Z,1003.2
2017-06-05T03:18:11.521Z,1003.21
2017-06-05T03:18:52.009Z,1003.18
2017-06-05T03:19:32.533Z,1003.24
2017-06-05T03:20:13.010Z,1003.26
2017-06-05T03:20:53.509Z,1003.22
2017-06-05T03:21:34.060Z,1003.25
2017-06-05T03:22:14.536Z,1003.22
2017-06-05T03:22:55.021Z,1003.24
2017-06-05T03:23:35.515Z,1003.23
2017-06-05T03:24:15.982Z,1003.22
2017-06-05T03:24:56.501Z,1003.21
2017-06-05T03:25:37.036Z,1003.22
2017-06-05T03:26:17.519Z,1003.24
2017-06-05T03:26:58.001Z,1003.21
2017-06-05T03:27:38.454Z,1003.19
2017-06-05T03:28:18.960Z,1003.2
2017-06-05T03:28:59.470Z,1003.16
2017-06-05T03:29:39.910Z,1003.19
2017-06-05T03:30:20.427Z,1003.15
2017-06-05T03:31:00.944Z,1003.12
2017-06-05T03:31:41.430Z,1003.15
2017-06-05T03:32:21.902Z,1003.13
2017-06-05T03:33:02.424Z,1003.2
2017-06-05T03:33:42.893Z,1003.15
2017-06-05T03:34:23.451Z,1003.14
2017-06-05T03:35:03.967Z,1003.21
2017-06-05T03:35:44.437Z,1003.13
2017-06-05T03:36:24.900Z,1003.19
2017-06-05T03:37:05.396Z,1003.18
2017-06-05T03:37:45.862Z,1003.19
2017-06-05T03:38:26.349Z,1003.17
2017-06-05T03:39:06.850Z,1003.15
2017-06-05T03:39:47.346Z,1003.2
2017-06-05T03:40:27.892Z,1003.19
2017-06-05T03:41:08.363Z,1003.13
2017-06-05T03:41:48.852Z,1003.18
2017-06-05T03:42:29.352Z,1003.16
2017-06-05T03:43:09.862Z,1003.15
2017-06-05T03:43:50.337Z,1003.13
2017-06-05T03:44:30.834Z,1003.17
2017-06-05T03:45:11.355Z,1003.11
2017-06-05T03:45:51.858Z,1003.11
2017-06-05T03:46:32.361Z,1003.14
2017-06-05T03:47:12.905Z,1003.09
2017-06-05T03:47:53.354Z,1003.13
2017-06-05T03:48:33.881Z,1003.11
2017-06-05T03:49:14.402Z,1003.1
2017-06-05T03:49:54.882Z,1003.1
2017-06-05T03:50:35.394Z,1003.09
2017-06-05T03:51:15.905Z,1003.1
2017-06-05T03:51:56.388Z,1003.11
2017-06-05T03:52:36.895Z,1003.1
2017-06-05T03:53:17.398Z,1003.06
2017-06-05T03:53:57.856Z,1003.12
2017-06-05T03:54:38.356Z,1003.09
2017-06-05T03:55:18.976Z,1003.12
2017-06-05T03:55:59.455Z,1003.11
2017-06-05T03:56:39.972Z,1003.13
2017-06-05T03:57:20.458Z,1003.14
2017-06-05T03:58:00.955Z,1003.14
2017-06-05T03:58:41.516Z,1003.11
2017-06-05T03:59:21.961Z,1003.14
2017-06-05T04:00:02.468Z,1003.15
2017-06-05T04:00:42.984Z,1003.18
2017-06-05T04:01:23.507Z,1003.17
2017-06-05T04:02:03.985Z,1003.18
2017-06-05T04:02:44.503Z,1003.2
2017-06-05T04:03:24.988Z,1003.21
2017-06-05T04:04:05.488Z,1003.2
2017-06-05T04:04:45.954Z,1003.19
2017-06-05T04:05:26.497Z,1003.17
2017-06-05T04:06:07.119Z,1003.21
2017-06-05T04:06:47.688Z,1003.19
2017-06-05T04:07:28.191Z,1003.19
2017-06-05T04:08:08.708Z,1003.15
2017-06-05T04:08:49.216Z,1003.16
2017-06-05T04:09:29.692Z,1003.13
2017-06-05T04:10:10.197Z,1003.15
2017-06-05T04:10:50.658Z,1003.09
2017-06-05T04:11:31.185Z,1003.07
2017-06-05T04:12:11.672Z,1003.11
2017-06-05T04:12:52.167Z,1003.09
2017-06-05T04:13:32.660Z,1003.13
2017-06-05T04:14:13.151Z,1003.08
2017-06-05T04:14:53.653Z,1003.1
2017-06-05T04:15:34.149Z,1003.06
2017-06-05T04:16:14.655Z,1003.1
2017-06-05T04:16:55.144Z,1003.12
2017-06-05T04:17:35.687Z,1003.09
2017-06-05T04:18:16.165Z,1003.09
2017-06-05T04:18:56.630Z,1003.04
2017-06-05T04:19:37.106Z,1003.05
2017-06-05T04:20:18.112Z,1003.06
2017-06-05T04:20:58.654Z,1003.04
2017-06-05T04:21:39.123Z,1003.03
2017-06-05T04:22:19.674Z,1002.99
2017-06-05T04:23:00.149Z,1003.05
2017-06-05T04:23:40.685Z,1002.98
2017-06-05T04:24:21.127Z,1003.01
2017-06-05T04:25:01.652Z,1003.02
2017-06-05T04:25:42.125Z,1003
2017-06-05T04:26:22.587Z,1003.04
2017-06-05T04:27:03.100Z,1003.01
2017-06-05T04:27:43.610Z,1002.97
2017-06-05T04:28:24.111Z,1002.98
2017-06-05T04:29:04.632Z,1002.97
2017-06-05T04:29:45.111Z,1002.98
2017-06-05T04:30:25.611Z,1002.98
2017-06-05T04:31:06.119Z,1002.98
2017-06-05T04:31:46.901Z,1002.98
2017-06-05T04:32:27.382Z,1002.97
2017-06-05T04:33:07.956Z,1002.93
2017-06-05T04:33:48.432Z,1002.96
2017-06-05T04:34:28.972Z,1002.92
2017-06-05T04:35:09.430Z,1002.97
2017-06-05T04:35:49.932Z,1002.96
2017-06-05T04:36:30.477Z,1002.99
2017-06-05T04:37:10.974Z,1003.01
2017-06-05T04:37:51.505Z,1003.04
2017-06-05T04:38:31.988Z,1003.02
2017-06-05T04:39:12.474Z,1003.06
2017-06-05T04:39:52.976Z,1003.04
2017-06-05T04:40:33.470Z,1003.02
2017-06-05T04:41:13.981Z,1003.07
2017-06-05T04:41:54.480Z,1003.08
2017-06-05T04:42:34.971Z,1003.13
2017-06-05T04:43:15.524Z,1003.13
2017-06-05T04:43:56.016Z,1003.11
2017-06-05T04:44:36.502Z,1003.08
2017-06-05T04:45:17.008Z,1003.08
2017-06-05T04:45:57.534Z,1003.04
2017-06-05T04:46:37.974Z,1003.05
2017-06-05T04:47:18.510Z,1003.04
2017-06-05T04:47:59.016Z,1003.03
2017-06-05T04:48:39.488Z,1003.07
2017-06-05T04:49:20.014Z,1002.98
2017-06-05T04:50:00.518Z,1002.99
2017-06-05T04:50:40.973Z,1003
2017-06-05T04:51:21.458Z,1002.97
2017-06-05T04:52:01.949Z,1003
2017-06-05T04:52:42.468Z,1003
2017-06-05T04:53:23.008Z,1003.01
2017-06-05T04:54:03.475Z,1002.97
2017-06-05T04:54:43.951Z,1002.97
2017-06-05T04:55:24.523Z,1002.96
2017-06-05T04:56:05.055Z,1002.99
2017-06-05T04:56:45.583Z,1003.02
2017-06-05T04:57:26.035Z,1002.98
2017-06-05T04:58:06.531Z,1002.98
2017-06-05T04:58:47.042Z,1003
2017-06-05T04:59:27.556Z,1002.99
2017-06-05T05:00:08.022Z,1002.99
2017-06-05T05:00:48.532Z,1003.01
2017-06-05T05:01:29.042Z,1003
2017-06-05T05:02:09.541Z,1003.01
2017-06-05T05:02:50.023Z,1003.01
2017-06-05T05:03:30.526Z,1002.96
2017-06-05T05:04:11.043Z,1003.02
2017-06-05T05:04:51.525Z,1003.04
2017-06-05T05:05:32.077Z,1003.05
2017-06-05T05:06:12.579Z,1002.98
2017-06-05T05:06:53.078Z,1003
2017-06-05T05:07:33.566Z,1003.01
2017-06-05T05:08:14.096Z,1003.02
2017-06-05T05:08:54.620Z,1003.02
2017-06-05T05:09:35.108Z,1003.04
2017-06-05T05:10:15.586Z,1003.04
2017-06-05T05:10:56.298Z,1003.06
2017-06-05T05:11:36.761Z,1003.06
2017-06-05T05:12:17.262Z,1003.06
2017-06-05T05:12:57.762Z,1002.99
2017-06-05T05:13:38.276Z,1002.97
2017-06-05T05:14:18.768Z,1002.98
2017-06-05T05:14:59.293Z,1002.99
2017-06-05T05:15:39.771Z,1002.98
2017-06-05T05:16:20.277Z,1002.97
2017-06-05T05:17:00.771Z,1002.95
2017-06-05T05:19:19.329Z,1002.93
2017-06-05T05:21:47.968Z,1002.96
2017-06-05T05:22:28.345Z,1002.98
2017-06-05T05:23:08.892Z,1002.96
2017-06-05T05:23:49.375Z,1002.99
2017-06-05T05:24:29.936Z,1002.97
2017-06-05T05:25:10.387Z,1002.99
2017-06-05T05:25:50.912Z,1002.98
2017-06-05T05:26:31.397Z,1002.98
2017-06-05T05:27:11.928Z,1002.98
2017-06-05T05:27:52.404Z,1002.97
2017-06-05T05:28:32.877Z,1003.07
2017-06-05T05:29:13.347Z,1003.04
2017-06-05T05:29:53.867Z,1003.05
2017-06-05T05:30:34.360Z,1003.02
2017-06-05T05:34:23.086Z,1003
2017-06-05T05:35:03.617Z,1003
2017-06-05T05:35:44.118Z,1002.99
2017-06-05T05:36:24.620Z,1002.98
2017-06-05T05:37:05.123Z,1002.95
2017-06-05T05:37:45.592Z,1003
2017-06-05T05:38:26.123Z,1003.02
2017-06-05T05:39:06.620Z,1002.97
2017-06-05T05:39:47.141Z,1003
2017-06-05T05:40:27.689Z,1003
2017-06-05T05:41:08.124Z,1002.98
2017-06-05T05:41:48.657Z,1003
2017-06-05T05:42:29.127Z,1003.03
2017-06-05T05:43:09.626Z,1003.02
2017-06-05T05:43:50.140Z,1002.96
2017-06-05T05:44:30.670Z,1002.93
2017-06-05T05:45:11.201Z,1002.98
2017-06-05T05:45:51.706Z,1002.98
2017-06-05T05:46:32.201Z,1002.98
2017-06-05T05:47:12.668Z,1002.99
2017-06-05T05:47:53.181Z,1002.99
2017-06-05T05:51:25.115Z,1003
2017-06-05T05:52:05.621Z,1002.97
2017-06-05T05:52:46.124Z,1003.01
2017-06-05T05:53:26.632Z,1002.98
2017-06-05T05:54:07.190Z,1003.01
2017-06-05T05:54:47.669Z,1002.95
2017-06-05T05:55:28.283Z,1002.97
2017-06-05T05:56:08.764Z,1002.98
2017-06-05T05:56:49.247Z,1002.99
2017-06-05T05:57:29.781Z,1003.03
2017-06-05T05:58:10.426Z,1002.98
2017-06-05T05:58:51.042Z,1002.99
2017-06-05T05:59:32.441Z,1003
2017-06-05T06:00:17.038Z,1003
2017-06-05T06:00:56.472Z,1002.99
2017-06-05T06:01:36.988Z,1003.02
2017-06-05T06:02:17.871Z,1003.03
2017-06-05T06:02:59.330Z,1003.01
2017-06-05T06:03:39.652Z,1002.98
2017-06-05T06:04:20.216Z,1003.06
2017-06-05T06:05:00.838Z,1003.04
2017-06-05T06:05:41.223Z,1003.01
2017-06-05T06:06:21.862Z,1003.04
2017-06-05T06:07:02.288Z,1003.05
2017-06-05T06:07:42.896Z,1003.06
2017-06-05T06:08:23.532Z,1003.1
2017-06-05T06:09:04.050Z,1003.08
2017-06-05T06:09:44.708Z,1003.07
2017-06-05T06:10:25.194Z,1003.13
2017-06-05T06:11:05.632Z,1003.07
2017-06-05T06:11:46.153Z,1003.1
2017-06-05T06:12:27.239Z,1003.07
2017-06-05T06:13:08.033Z,1003.08
2017-06-05T06:13:48.617Z,1003.1
2017-06-05T06:14:29.170Z,1003.05
2017-06-05T06:15:09.666Z,1003.04
2017-06-05T06:15:50.152Z,1003.09
2017-06-05T06:16:30.572Z,1003.06
2017-06-05T06:17:11.072Z,1003.11
2017-06-05T06:17:51.559Z,1003.07
2017-06-05T06:18:32.206Z,1003.05
2017-06-05T06:19:13.106Z,1003.08
2017-06-05T06:19:53.591Z,1003.11
2017-06-05T06:20:34.747Z,1003.09
2017-06-05T06:21:15.275Z,1003.11
2017-06-05T06:21:55.780Z,1003.11
2017-06-05T06:22:36.305Z,1003.13
2017-06-05T06:23:16.740Z,1003.11
2017-06-05T06:23:57.714Z,1003.12
2017-06-05T06:24:38.394Z,1003.11
2017-06-05T06:25:18.955Z,1003.1
2017-06-05T06:25:59.462Z,1003.14
2017-06-05T06:26:40.070Z,1003.12
2017-06-05T06:27:20.931Z,1003.11
2017-06-05T06:28:01.086Z,1003.11
2017-06-05T06:28:41.678Z,1003.11
2017-06-05T06:29:22.130Z,1003.1
2017-06-05T06:30:02.669Z,1003.1
2017-06-05T06:30:44.068Z,1003.11
2017-06-05T06:31:24.550Z,1003.1
2017-06-05T06:32:05.205Z,1003.09
2017-06-05T06:32:45.791Z,1003.07
2017-06-05T06:33:27.315Z,1003.07
2017-06-05T06:34:07.941Z,1003.04
2017-06-05T06:34:48.429Z,1003.04
2017-06-05T06:35:28.911Z,1003.03
2017-06-05T06:36:09.839Z,1003.01
2017-06-05T06:36:50.355Z,1003.02
2017-06-05T06:37:30.841Z,1003
2017-06-05T06:38:11.373Z,1003.02
2017-06-05T06:38:51.862Z,1003.03
2017-06-05T06:39:32.369Z,1002.99
2017-06-05T06:40:12.841Z,1002.99
2017-06-05T06:40:53.435Z,1002.99
2017-06-05T06:41:33.950Z,1003.01
2017-06-05T06:42:14.418Z,1002.98
2017-06-05T06:42:55.250Z,1003.02
2017-06-05T06:43:35.730Z,1002.99
2017-06-05T06:44:16.192Z,1003.05
2017-06-05T06:44:56.686Z,1003.04
2017-06-05T06:45:37.184Z,1003
2017-06-05T06:46:17.662Z,1003.01
2017-06-05T06:46:58.173Z,1003.04
2017-06-05T06:47:38.644Z,1003.01
2017-06-05T06:48:19.140Z,1003.02
2017-06-05T06:48:59.650Z,1003.05
2017-06-05T06:49:40.090Z,1003.03
2017-06-05T06:50:20.633Z,1003.03
2017-06-05T06:51:01.157Z,1002.99
2017-06-05T06:51:41.845Z,1002.99
2017-06-05T06:52:22.356Z,1002.94
2017-06-05T06:53:02.862Z,1002.99
2017-06-05T06:53:43.376Z,1002.99
2017-06-05T06:54:23.901Z,1003
2017-06-05T06:55:04.395Z,1003.01
2017-06-05T06:55:44.873Z,1003.02
2017-06-05T06:56:25.401Z,1003
2017-06-05T06:57:05.879Z,1003
2017-06-05T06:57:46.372Z,1002.99
2017-06-05T06:58:26.848Z,1003.04
2017-06-05T06:59:07.422Z,1003.03
2017-06-05T06:59:47.964Z,1003.02
2017-06-05T07:00:28.473Z,1003
2017-06-05T07:01:08.946Z,1003.01
2017-06-05T07:01:49.447Z,1002.97
2017-06-05T07:02:29.973Z,1003.01
2017-06-05T07:03:10.440Z,1002.96
2017-06-05T07:03:54.622Z,1003
2017-06-05T07:04:35.114Z,1002.99
2017-06-05T07:05:15.632Z,1003
2017-06-05T07:05:56.102Z,1002.95
2017-06-05T07:06:36.608Z,1003.02
2017-06-05T07:07:17.115Z,1003
2017-06-05T07:07:57.624Z,1002.99
2017-06-05T07:08:38.110Z,1002.99
2017-06-05T07:09:18.604Z,1003.01
2017-06-05T07:09:59.147Z,1003.02
2017-06-05T07:10:39.589Z,1002.98
2017-06-05T07:11:20.212Z,1003
2017-06-05T07:12:00.691Z,1003.03
2017-06-05T07:12:41.181Z,1003.02
2017-06-05T07:13:21.681Z,1003.03
2017-06-05T07:14:02.171Z,1003.04
2017-06-05T07:14:42.655Z,1003.01
2017-06-05T07:15:23.186Z,1003.03
2017-06-05T07:16:03.656Z,1003.05
2017-06-05T07:16:44.152Z,1003.08
2017-06-05T07:17:24.668Z,1003.08
2017-06-05T07:18:05.195Z,1003.05
2017-06-05T07:18:45.720Z,1003.05
2017-06-05T07:19:26.227Z,1003.05
2017-06-05T07:20:06.774Z,1003.06
2017-06-05T07:20:47.268Z,1003.04
2017-06-05T07:21:27.794Z,1003.06
2017-06-05T07:22:08.315Z,1003.03
2017-06-05T07:22:48.953Z,1003.06
2017-06-05T07:23:29.449Z,1003.06
2017-06-05T07:24:09.917Z,1003.07
2017-06-05T07:24:50.437Z,1003.07
2017-06-05T07:25:30.916Z,1003.05
2017-06-05T07:26:11.428Z,1003.06
2017-06-05T07:26:51.933Z,1003.07
2017-06-05T07:27:32.439Z,1003.05
2017-06-05T07:28:12.953Z,1003.06
2017-06-05T07:28:53.476Z,1003.06
2017-06-05T07:29:33.952Z,1003.08
2017-06-05T07:30:14.426Z,1003.1
2017-06-05T07:30:54.952Z,1003.1
2017-06-05T07:31:35.452Z,1003.13
2017-06-05T07:32:15.988Z,1003.14
2017-06-05T07:32:56.484Z,1003.06
2017-06-05T07:33:36.985Z,1003.11
2017-06-05T07:34:17.500Z,1003.14
2017-06-05T07:34:57.998Z,1003.11
2017-06-05T07:35:38.509Z,1003.14
2017-06-05T07:36:19.059Z,1003.14
2017-06-05T07:36:59.594Z,1003.14
2017-06-05T07:37:40.106Z,1003.1
2017-06-05T07:38:20.593Z,1003.09
2017-06-05T07:39:01.106Z,1003.07
2017-06-05T07:39:41.643Z,1003.11
2017-06-05T07:40:22.142Z,1003.05
2017-06-05T07:41:02.688Z,1003.06
2017-06-05T07:41:43.252Z,1003.07
2017-06-05T07:42:23.850Z,1003.08
2017-06-05T07:43:04.351Z,1003.09
2017-06-05T07:43:44.875Z,1003.08
2017-06-05T07:44:25.400Z,1003.1
2017-06-05T07:45:05.936Z,1003.07
2017-06-05T07:45:46.431Z,1003.05
2017-06-05T07:46:26.926Z,1003.07
2017-06-05T07:47:07.456Z,1003.04
2017-06-05T07:47:47.967Z,1003.04
2017-06-05T07:48:28.626Z,1003
2017-06-05T07:49:09.236Z,1002.97
2017-06-05T07:49:49.741Z,1002.98
2017-06-05T07:50:30.292Z,1002.97
2017-06-05T07:51:10.828Z,1002.95
2017-06-05T07:51:51.505Z,1002.98
2017-06-05T07:52:32.348Z,1002.98
2017-06-05T07:53:12.868Z,1003.01
2017-06-05T07:53:53.458Z,1002.96
2017-06-05T07:54:33.956Z,1002.94
2017-06-05T07:55:14.521Z,1002.96
2017-06-05T07:55:54.997Z,1003.01
2017-06-05T07:56:35.559Z,1002.96
2017-06-05T07:57:16.042Z,1002.91
2017-06-05T07:57:57.146Z,1002.93
2017-06-05T07:58:37.540Z,1002.96
2017-06-05T07:59:18.020Z,1002.92
2017-06-05T07:59:58.534Z,1002.93
2017-06-05T08:00:39.049Z,1002.92
2017-06-05T08:01:19.580Z,1002.92
2017-06-05T08:02:00.053Z,1002.93
2017-06-05T08:02:40.520Z,1002.91
2017-06-05T08:03:21.063Z,1002.92
2017-06-05T08:04:01.548Z,1002.89
2017-06-05T08:04:42.134Z,1002.88
2017-06-05T08:05:22.697Z,1002.84
2017-06-05T08:06:03.281Z,1002.84
2017-06-05T08:06:43.841Z,1002.86
2017-06-05T08:07:24.329Z,1002.87
2017-06-05T08:08:04.797Z,1002.92
2017-06-05T08:08:45.282Z,1002.86
2017-06-05T08:09:25.810Z,1002.87
2017-06-05T08:10:06.405Z,1002.92
2017-06-05T08:10:46.817Z,1002.93
2017-06-05T08:11:27.727Z,1002.95
2017-06-05T08:12:08.158Z,1002.96
2017-06-05T08:12:48.653Z,1003
2017-06-05T08:13:29.146Z,1003
2017-06-05T08:14:09.606Z,1002.99
2017-06-05T08:14:50.119Z,1002.98
2017-06-05T08:15:30.640Z,1003
2017-06-05T08:16:11.130Z,1003.02
2017-06-05T08:16:51.597Z,1002.99
2017-06-05T08:17:32.209Z,1003.02
2017-06-05T08:18:12.680Z,1003
2017-06-05T08:18:53.233Z,1002.98
2017-06-05T08:19:33.760Z,1002.98
2017-06-05T08:20:14.229Z,1002.99
2017-06-05T08:20:54.680Z,1003.04
2017-06-05T08:21:35.208Z,1003.05
2017-06-05T08:22:15.745Z,1003.03
2017-06-05T08:22:56.272Z,1003.08
2017-06-05T08:23:36.783Z,1003.07
2017-06-05T08:24:17.318Z,1003.13